sensor_id;sensor_type;location;lat;lon;timestamp;pressure;altitude;pressure_sealevel;temperature;humidity
18323;BME280;9287;49.456;11.064;2023-03-11T00:01:26;96682.59;;;2.73;80.81
18323;BME280;9287;49.456;11.064;2023-03-11T00:03:54;96684.56;;;2.64;80.86
18323;BME280;9287;49.456;11.064;2023-03-11T00:06:23;96703.22;;;2.69;82.73
18323;BME280;9287;49.456;11.064;2023-03-11T00:08:51;96692.47;;;2.69;83.68
18323;BME280;9287;49.456;11.064;2023-03-11T00:11:19;96692.47;;;2.69;82.64
18323;BME280;9287;49.456;11.064;2023-03-11T00:13:47;96698.75;;;2.73;82.78
18323;BME280;9287;49.456;11.064;2023-03-11T00:16:15;96706.38;;;2.71;82.42
18323;BME280;9287;49.456;11.064;2023-03-11T00:18:43;96728.16;;;2.66;83.35
18323;BME280;9287;49.456;11.064;2023-03-11T00:21:14;96730.84;;;2.66;82.78
18323;BME280;9287;49.456;11.064;2023-03-11T00:23:44;96727.69;;;2.64;82.16
18323;BME280;9287;49.456;11.064;2023-03-11T00:26:12;96690.97;;;2.60;83.31
18323;BME280;9287;49.456;11.064;2023-03-11T00:28:39;96730.06;;;2.45;82.71
18323;BME280;9287;49.456;11.064;2023-03-11T00:31:09;96737.50;;;2.48;83.47
18323;BME280;9287;49.456;11.064;2023-03-11T00:33:37;96725.59;;;2.49;83.53
18323;BME280;9287;49.456;11.064;2023-03-11T00:36:06;96744.22;;;2.42;82.29
18323;BME280;9287;49.456;11.064;2023-03-11T00:38:33;96760.81;;;2.44;82.48
18323;BME280;9287;49.456;11.064;2023-03-11T00:41:03;96767.78;;;2.45;82.78
18323;BME280;9287;49.456;11.064;2023-03-11T00:43:31;96769.50;;;2.50;82.23
18323;BME280;9287;49.456;11.064;2023-03-11T00:45:58;96758.41;;;2.51;82.83
18323;BME280;9287;49.456;11.064;2023-03-11T00:48:26;96764.63;;;2.43;83.55
18323;BME280;9287;49.456;11.064;2023-03-11T00:50:54;96778.56;;;2.45;84.62
18323;BME280;9287;49.456;11.064;2023-03-11T00:53:22;96775.69;;;2.50;84.83
18323;BME280;9287;49.456;11.064;2023-03-11T00:55:49;96783.97;;;2.45;85.64
18323;BME280;9287;49.456;11.064;2023-03-11T00:58:19;96785.28;;;2.39;85.63
18323;BME280;9287;49.456;11.064;2023-03-11T01:00:49;96791.97;;;2.33;86.45
18323;BME280;9287;49.456;11.064;2023-03-11T01:03:17;96798.28;;;2.37;86.91
18323;BME280;9287;49.456;11.064;2023-03-11T01:05:44;96791.03;;;2.29;87.42
18323;BME280;9287;49.456;11.064;2023-03-11T01:08:12;96793.56;;;2.34;89.05
18323;BME280;9287;49.456;11.064;2023-03-11T01:10:40;96793.56;;;2.34;89.21
18323;BME280;9287;49.456;11.064;2023-03-11T01:13:08;96815.75;;;2.31;88.57
18323;BME280;9287;49.456;11.064;2023-03-11T01:15:37;96815.50;;;2.24;89.00
18323;BME280;9287;49.456;11.064;2023-03-11T01:18:05;96720.78;;;2.22;89.33
18323;BME280;9287;49.456;11.064;2023-03-11T01:20:33;96825.69;;;2.09;90.59
18323;BME280;9287;49.456;11.064;2023-03-11T01:23:02;96830.16;;;2.05;91.15
18323;BME280;9287;49.456;11.064;2023-03-11T01:25:29;96837.50;;;1.96;92.53
18323;BME280;9287;49.456;11.064;2023-03-11T01:27:57;96843.81;;;2.00;92.66
18323;BME280;9287;49.456;11.064;2023-03-11T01:30:26;96849.19;;;2.00;93.95
18323;BME280;9287;49.456;11.064;2023-03-11T01:32:56;96855.69;;;1.99;95.18
18323;BME280;9287;49.456;11.064;2023-03-11T01:35:26;96853.63;;;1.96;95.21
18323;BME280;9287;49.456;11.064;2023-03-11T01:37:54;96849.84;;;1.97;94.93
18323;BME280;9287;49.456;11.064;2023-03-11T01:40:25;96854.75;;;1.95;95.65
18323;BME280;9287;49.456;11.064;2023-03-11T01:42:53;96837.50;;;1.96;95.48
18323;BME280;9287;49.456;11.064;2023-03-11T01:45:39;96841.28;;;1.95;95.71
18323;BME280;9287;49.456;11.064;2023-03-11T01:48:09;96817.44;;;1.85;97.08
18323;BME280;9287;49.456;11.064;2023-03-11T01:50:40;96835.34;;;1.81;98.54
18323;BME280;9287;49.456;11.064;2023-03-11T01:53:10;96829.97;;;1.81;100.00
18323;BME280;9287;49.456;11.064;2023-03-11T01:55:39;96835.34;;;1.81;100.00
18323;BME280;9287;49.456;11.064;2023-03-11T01:58:11;96833.59;;;1.85;100.00
18323;BME280;9287;49.456;11.064;2023-03-11T02:00:41;96846.09;;;1.81;100.00
18323;BME280;9287;49.456;11.064;2023-03-11T02:03:16;96857.81;;;1.85;100.00
18323;BME280;9287;49.456;11.064;2023-03-11T02:05:46;96846.75;;;1.78;100.00
18323;BME280;9287;49.456;11.064;2023-03-11T02:08:14;96854.34;;;1.76;100.00
18323;BME280;9287;49.456;11.064;2023-03-11T02:10:42;96866.69;;;1.77;100.00
18323;BME280;9287;49.456;11.064;2023-03-11T02:13:10;96865.63;;;1.69;100.00
18323;BME280;9287;49.456;11.064;2023-03-11T02:15:38;96859.47;;;1.69;100.00
18323;BME280;9287;49.456;11.064;2023-03-11T02:18:08;96843.94;;;1.66;100.00
18323;BME280;9287;49.456;11.064;2023-03-11T02:20:46;96868.50;;;1.64;100.00
18323;BME280;9287;49.456;11.064;2023-03-11T02:23:17;96863.91;;;1.65;100.00
18323;BME280;9287;49.456;11.064;2023-03-11T02:25:50;96871.50;;;1.63;100.00
18323;BME280;9287;49.456;11.064;2023-03-11T02:28:21;96862.69;;;1.54;100.00
18323;BME280;9287;49.456;11.064;2023-03-11T02:30:51;96868.34;;;1.61;100.00
18323;BME280;9287;49.456;11.064;2023-03-11T02:33:19;96864.38;;;1.58;100.00
18323;BME280;9287;49.456;11.064;2023-03-11T02:35:46;96871.22;;;1.56;100.00
18323;BME280;9287;49.456;11.064;2023-03-11T02:38:14;96875.13;;;1.58;100.00
18323;BME280;9287;49.456;11.064;2023-03-11T02:40:49;96867.22;;;1.62;100.00
18323;BME280;9287;49.456;11.064;2023-03-11T02:43:24;96873.44;;;1.54;100.00
18323;BME280;9287;49.456;11.064;2023-03-11T02:45:53;96891.78;;;1.52;100.00
18323;BME280;9287;49.456;11.064;2023-03-11T02:48:22;96876.91;;;1.54;100.00
18323;BME280;9287;49.456;11.064;2023-03-11T02:50:50;96885.47;;;1.48;100.00
18323;BME280;9287;49.456;11.064;2023-03-11T02:53:18;96881.66;;;1.49;100.00
18323;BME280;9287;49.456;11.064;2023-03-11T02:55:46;96880.72;;;1.45;100.00
18323;BME280;9287;49.456;11.064;2023-03-11T02:58:14;96898.47;;;1.37;100.00
18323;BME280;9287;49.456;11.064;2023-03-11T03:00:43;96892.44;;;1.40;100.00
18323;BME280;9287;49.456;11.064;2023-03-11T03:03:11;96897.50;;;1.42;100.00
18323;BME280;9287;49.456;11.064;2023-03-11T03:05:40;96903.81;;;1.46;100.00
18323;BME280;9287;49.456;11.064;2023-03-11T03:08:08;96913.94;;;1.49;100.00
18323;BME280;9287;49.456;11.064;2023-03-11T03:10:36;96898.28;;;1.42;100.00
18323;BME280;9287;49.456;11.064;2023-03-11T03:13:03;96896.56;;;1.37;100.00
18323;BME280;9287;49.456;11.064;2023-03-11T03:15:31;96916.50;;;1.36;100.00
18323;BME280;9287;49.456;11.064;2023-03-11T03:18:00;96917.75;;;1.30;100.00
18323;BME280;9287;49.456;11.064;2023-03-11T03:20:28;96914.91;;;1.27;100.00
18323;BME280;9287;49.456;11.064;2023-03-11T03:22:56;96913.66;;;1.24;100.00
18323;BME280;9287;49.456;11.064;2023-03-11T03:25:23;96921.91;;;1.19;100.00
18323;BME280;9287;49.456;11.064;2023-03-11T03:27:51;96906.41;;;1.16;100.00
18323;BME280;9287;49.456;11.064;2023-03-11T03:30:19;96929.50;;;1.17;100.00
18323;BME280;9287;49.456;11.064;2023-03-11T03:32:47;96932.34;;;1.21;100.00
18323;BME280;9287;49.456;11.064;2023-03-11T03:35:16;96932.19;;;1.17;100.00
18323;BME280;9287;49.456;11.064;2023-03-11T03:37:44;96953.84;;;1.12;100.00
18323;BME280;9287;49.456;11.064;2023-03-11T03:40:13;96928.84;;;1.20;100.00
18323;BME280;9287;49.456;11.064;2023-03-11T03:42:40;96949.41;;;1.16;100.00
18323;BME280;9287;49.456;11.064;2023-03-11T03:45:09;96948.31;;;1.17;100.00
18323;BME280;9287;49.456;11.064;2023-03-11T03:47:37;96961.13;;;1.20;100.00
18323;BME280;9287;49.456;11.064;2023-03-11T03:50:07;96946.72;;;1.16;100.00
18323;BME280;9287;49.456;11.064;2023-03-11T03:52:37;96950.38;;;1.20;100.00
18323;BME280;9287;49.456;11.064;2023-03-11T03:55:05;96961.13;;;1.20;100.00
18323;BME280;9287;49.456;11.064;2023-03-11T03:57:33;96960.00;;;1.21;100.00
18323;BME280;9287;49.456;11.064;2023-03-11T04:00:02;96968.72;;;1.18;100.00
18323;BME280;9287;49.456;11.064;2023-03-11T04:02:30;96971.72;;;1.17;100.00
18323;BME280;9287;49.456;11.064;2023-03-11T04:04:58;96968.72;;;1.18;100.00
18323;BME280;9287;49.456;11.064;2023-03-11T04:07:26;96980.25;;;1.19;100.00
18323;BME280;9287;49.456;11.064;2023-03-11T04:09:55;96980.41;;;1.22;100.00
18323;BME280;9287;49.456;11.064;2023-03-11T04:12:23;96980.09;;;1.15;100.00
18323;BME280;9287;49.456;11.064;2023-03-11T04:14:51;96985.47;;;1.15;100.00
18323;BME280;9287;49.456;11.064;2023-03-11T04:17:19;96991.00;;;1.19;100.00
18323;BME280;9287;49.456;11.064;2023-03-11T04:19:46;96986.44;;;1.19;100.00
18323;BME280;9287;49.456;11.064;2023-03-11T04:22:15;96987.22;;;1.20;100.00
18323;BME280;9287;49.456;11.064;2023-03-11T04:24:43;96995.13;;;1.16;100.00
18323;BME280;9287;49.456;11.064;2023-03-11T04:27:12;97002.56;;;1.19;100.00
18323;BME280;9287;49.456;11.064;2023-03-11T04:29:40;97009.19;;;1.13;100.00
18323;BME280;9287;49.456;11.064;2023-03-11T04:32:08;97005.56;;;1.18;100.00
18323;BME280;9287;49.456;11.064;2023-03-11T04:34:36;97006.03;;;1.11;100.00
18323;BME280;9287;49.456;11.064;2023-03-11T04:37:03;97013.13;;;1.07;100.00
18323;BME280;9287;49.456;11.064;2023-03-11T04:39:31;97022.16;;;1.11;100.00
18323;BME280;9287;49.456;11.064;2023-03-11T04:42:00;97028.16;;;1.08;100.00
18323;BME280;9287;49.456;11.064;2023-03-11T04:44:31;97026.56;;;1.07;100.00
18323;BME280;9287;49.456;11.064;2023-03-11T04:47:00;97031.94;;;1.07;100.00
18323;BME280;9287;49.456;11.064;2023-03-11T04:49:28;97027.97;;;1.04;100.00
18323;BME280;9287;49.456;11.064;2023-03-11T04:51:56;97034.00;;;1.01;100.00
18323;BME280;9287;49.456;11.064;2023-03-11T04:54:24;97026.25;;;1.00;100.00
18323;BME280;9287;49.456;11.064;2023-03-11T04:56:51;97029.38;;;0.93;100.00
18323;BME280;9287;49.456;11.064;2023-03-11T04:59:19;97030.19;;;0.94;100.00
18323;BME280;9287;49.456;11.064;2023-03-11T05:01:48;97027.50;;;0.94;100.00
18323;BME280;9287;49.456;11.064;2023-03-11T05:04:16;97029.69;;;0.92;100.00
18323;BME280;9287;49.456;11.064;2023-03-11T05:06:44;97026.25;;;1.00;100.00
18323;BME280;9287;49.456;11.064;2023-03-11T05:09:11;97038.56;;;0.92;100.00
18323;BME280;9287;49.456;11.064;2023-03-11T05:11:39;97031.91;;;0.90;100.00
18323;BME280;9287;49.456;11.064;2023-03-11T05:14:07;97042.03;;;0.93;100.00
18323;BME280;9287;49.456;11.064;2023-03-11T05:16:35;97042.84;;;0.93;100.00
18323;BME280;9287;49.456;11.064;2023-03-11T05:19:04;97050.59;;;0.95;100.00
18323;BME280;9287;49.456;11.064;2023-03-11T05:21:52;97049.00;;;0.94;100.00
18323;BME280;9287;49.456;11.064;2023-03-11T05:24:20;97058.63;;;0.86;100.00
18323;BME280;9287;49.456;11.064;2023-03-11T05:26:48;97067.00;;;0.85;100.00
18323;BME280;9287;49.456;11.064;2023-03-11T05:29:15;97070.16;;;0.87;100.00
18323;BME280;9287;49.456;11.064;2023-03-11T05:31:43;97072.53;;;0.88;100.00
18323;BME280;9287;49.456;11.064;2023-03-11T05:34:13;97074.91;;;0.90;100.00
18323;BME280;9287;49.456;11.064;2023-03-11T05:36:41;97080.91;;;0.87;100.00
18323;BME280;9287;49.456;11.064;2023-03-11T05:39:09;97086.44;;;0.90;100.00
18323;BME280;9287;49.456;11.064;2023-03-11T05:41:37;97083.19;;;1.02;100.00
18323;BME280;9287;49.456;11.064;2023-03-11T05:44:05;97096.16;;;1.00;100.00
18323;BME280;9287;49.456;11.064;2023-03-11T05:46:33;97097.09;;;1.04;100.00
18323;BME280;9287;49.456;11.064;2023-03-11T05:49:01;97097.44;;;1.11;100.00
18323;BME280;9287;49.456;11.064;2023-03-11T05:51:30;97100.59;;;1.13;100.00
18323;BME280;9287;49.456;11.064;2023-03-11T05:53:58;97098.41;;;1.15;100.00
18323;BME280;9287;49.456;11.064;2023-03-11T05:56:26;97110.56;;;1.13;100.00
18323;BME280;9287;49.456;11.064;2023-03-11T05:58:56;97099.81;;;1.21;100.00
18323;BME280;9287;49.456;11.064;2023-03-11T06:01:24;97108.84;;;1.25;100.00
18323;BME280;9287;49.456;11.064;2023-03-11T06:03:52;97101.41;;;1.22;100.00
18323;BME280;9287;49.456;11.064;2023-03-11T06:06:20;97111.72;;;1.20;100.00
18323;BME280;9287;49.456;11.064;2023-03-11T06:08:50;97101.88;;;1.24;100.00
18323;BME280;9287;49.456;11.064;2023-03-11T06:11:18;97115.06;;;1.34;100.00
18323;BME280;9287;49.456;11.064;2023-03-11T06:13:46;97102.72;;;1.33;100.00
18323;BME280;9287;49.456;11.064;2023-03-11T06:16:14;97118.63;;;1.21;100.00
18323;BME280;9287;49.456;11.064;2023-03-11T06:18:42;97107.25;;;1.24;100.00
18323;BME280;9287;49.456;11.064;2023-03-11T06:21:14;97118.63;;;1.21;100.00
18323;BME280;9287;49.456;11.064;2023-03-11T06:23:43;97127.03;;;1.20;100.00
18323;BME280;9287;49.456;11.064;2023-03-11T06:26:14;97131.63;;;1.19;100.00
18323;BME280;9287;49.456;11.064;2023-03-11T06:28:42;97138.59;;;1.20;100.00
18323;BME280;9287;49.456;11.064;2023-03-11T06:31:12;97149.34;;;1.20;100.00
18323;BME280;9287;49.456;11.064;2023-03-11T06:33:41;97154.44;;;1.30;100.00
18323;BME280;9287;49.456;11.064;2023-03-11T06:36:11;97153.81;;;1.33;100.00
18323;BME280;9287;49.456;11.064;2023-03-11T06:38:39;97142.44;;;1.36;100.00
18323;BME280;9287;49.456;11.064;2023-03-11T06:41:09;97158.66;;;1.23;100.00
18323;BME280;9287;49.456;11.064;2023-03-11T06:43:38;97154.59;;;1.34;100.00
18323;BME280;9287;49.456;11.064;2023-03-11T06:46:10;97159.69;;;1.35;100.00
18323;BME280;9287;49.456;11.064;2023-03-11T06:48:38;97158.22;;;1.29;100.00
18323;BME280;9287;49.456;11.064;2023-03-11T06:51:06;97163.00;;;1.32;100.00
18323;BME280;9287;49.456;11.064;2023-03-11T06:53:34;97170.09;;;1.28;100.00
18323;BME280;9287;49.456;11.064;2023-03-11T06:56:04;97174.97;;;1.26;100.00
18323;BME280;9287;49.456;11.064;2023-03-11T06:58:33;97185.41;;;1.19;100.00
18323;BME280;9287;49.456;11.064;2023-03-11T07:01:05;97178.94;;;1.20;100.00
18323;BME280;9287;49.456;11.064;2023-03-11T07:03:33;97182.56;;;1.24;100.00
18323;BME280;9287;49.456;11.064;2023-03-11T07:06:01;97187.63;;;1.17;100.00
18323;BME280;9287;49.456;11.064;2023-03-11T07:08:32;97194.09;;;1.25;100.00
18323;BME280;9287;49.456;11.064;2023-03-11T07:11:02;97194.34;;;1.46;100.00
18323;BME280;9287;49.456;11.064;2023-03-11T07:13:30;97208.63;;;1.63;100.00
18323;BME280;9287;49.456;11.064;2023-03-11T07:15:59;97202.66;;;1.92;100.00
18323;BME280;9287;49.456;11.064;2023-03-11T07:18:29;97205.56;;;2.04;100.00
18323;BME280;9287;49.456;11.064;2023-03-11T07:20:57;97200.78;;;2.01;100.00
18323;BME280;9287;49.456;11.064;2023-03-11T07:23:25;97203.66;;;2.05;100.00
18323;BME280;9287;49.456;11.064;2023-03-11T07:25:53;97205.06;;;2.02;100.00
18323;BME280;9287;49.456;11.064;2023-03-11T07:28:21;97213.16;;;2.02;100.00
18323;BME280;9287;49.456;11.064;2023-03-11T07:30:49;97225.81;;;2.10;100.00
18323;BME280;9287;49.456;11.064;2023-03-11T07:33:17;97217.59;;;2.50;100.00
18323;BME280;9287;49.456;11.064;2023-03-11T07:35:46;97216.97;;;2.53;98.19
18323;BME280;9287;49.456;11.064;2023-03-11T07:38:15;97226.47;;;2.59;98.50
18323;BME280;9287;49.456;11.064;2023-03-11T07:40:43;97230.88;;;2.72;97.13
18323;BME280;9287;49.456;11.064;2023-03-11T07:43:11;97232.16;;;2.66;96.08
18323;BME280;9287;49.456;11.064;2023-03-11T07:45:39;97243.91;;;2.53;96.71
18323;BME280;9287;49.456;11.064;2023-03-11T07:48:07;97245.66;;;2.23;100.00
18323;BME280;9287;49.456;11.064;2023-03-11T07:50:34;97249.91;;;2.16;100.00
18323;BME280;9287;49.456;11.064;2023-03-11T07:53:04;97257.03;;;2.12;100.00
18323;BME280;9287;49.456;11.064;2023-03-11T07:55:32;97257.66;;;2.00;100.00
18323;BME280;9287;49.456;11.064;2023-03-11T07:58:00;97271.25;;;1.95;100.00
18323;BME280;9287;49.456;11.064;2023-03-11T08:00:28;97270.47;;;1.94;100.00
18323;BME280;9287;49.456;11.064;2023-03-11T08:02:56;97272.03;;;1.95;100.00
18323;BME280;9287;49.456;11.064;2023-03-11T08:05:23;97286.03;;;2.15;100.00
18323;BME280;9287;49.456;11.064;2023-03-11T08:07:51;97280.19;;;2.21;100.00
18323;BME280;9287;49.456;11.064;2023-03-11T08:10:20;97291.91;;;2.34;100.00
18323;BME280;9287;49.456;11.064;2023-03-11T08:12:49;97283.84;;;2.34;99.27
18323;BME280;9287;49.456;11.064;2023-03-11T08:15:17;97294.00;;;2.37;97.04
18323;BME280;9287;49.456;11.064;2023-03-11T08:17:45;97297.00;;;2.35;97.53
18323;BME280;9287;49.456;11.064;2023-03-11T08:20:13;97304.28;;;2.43;95.95
18323;BME280;9287;49.456;11.064;2023-03-11T08:22:40;97300.63;;;2.31;97.05
18323;BME280;9287;49.456;11.064;2023-03-11T08:25:23;97308.53;;;2.19;97.02
18323;BME280;9287;49.456;11.064;2023-03-11T08:27:51;97314.91;;;2.40;96.77
18323;BME280;9287;49.456;11.064;2023-03-11T08:30:19;97307.47;;;2.37;94.81
18323;BME280;9287;49.456;11.064;2023-03-11T08:32:47;97314.22;;;2.26;94.83
18323;BME280;9287;49.456;11.064;2023-03-11T08:35:16;97327.25;;;2.24;95.33
18323;BME280;9287;49.456;11.064;2023-03-11T08:37:44;97318.84;;;2.42;90.75
18323;BME280;9287;49.456;11.064;2023-03-11T08:40:12;97328.72;;;2.56;85.81
18323;BME280;9287;49.456;11.064;2023-03-11T08:42:41;97341.25;;;2.77;84.07
18323;BME280;9287;49.456;11.064;2023-03-11T08:45:10;97331.75;;;2.71;84.51
18323;BME280;9287;49.456;11.064;2023-03-11T08:47:38;97335.53;;;3.05;82.09
18323;BME280;9287;49.456;11.064;2023-03-11T08:50:12;97335.75;;;3.46;77.26
18323;BME280;9287;49.456;11.064;2023-03-11T08:52:41;97336.59;;;3.85;75.61
18323;BME280;9287;49.456;11.064;2023-03-11T08:55:11;97348.78;;;4.79;69.85
18323;BME280;9287;49.456;11.064;2023-03-11T08:57:39;97325.69;;;6.42;61.46
18323;BME280;9287;49.456;11.064;2023-03-11T09:00:11;97341.25;;;6.69;58.31
18323;BME280;9287;49.456;11.064;2023-03-11T09:02:39;97354.16;;;6.11;56.70
18323;BME280;9287;49.456;11.064;2023-03-11T09:05:09;97348.91;;;5.70;57.32
18323;BME280;9287;49.456;11.064;2023-03-11T09:07:37;97357.09;;;5.61;58.54
18323;BME280;9287;49.456;11.064;2023-03-11T09:10:05;97358.03;;;6.35;57.41
18323;BME280;9287;49.456;11.064;2023-03-11T09:12:33;97356.38;;;5.85;57.69
18323;BME280;9287;49.456;11.064;2023-03-11T09:15:01;97369.91;;;5.40;57.56
18323;BME280;9287;49.456;11.064;2023-03-11T09:17:30;97358.75;;;5.41;56.32
18323;BME280;9287;49.456;11.064;2023-03-11T09:19:57;97363.75;;;5.18;57.08
18323;BME280;9287;49.456;11.064;2023-03-11T09:22:25;97361.66;;;5.69;57.90
18323;BME280;9287;49.456;11.064;2023-03-11T09:24:53;97359.13;;;6.46;54.43
18323;BME280;9287;49.456;11.064;2023-03-11T09:27:21;97360.34;;;7.13;52.34
18323;BME280;9287;49.456;11.064;2023-03-11T09:29:48;97358.47;;;6.24;52.91
18323;BME280;9287;49.456;11.064;2023-03-11T09:32:16;97366.31;;;4.73;56.11
18323;BME280;9287;49.456;11.064;2023-03-11T09:34:45;97375.19;;;4.24;58.96
18323;BME280;9287;49.456;11.064;2023-03-11T09:37:13;97373.47;;;3.81;63.62
18323;BME280;9287;49.456;11.064;2023-03-11T09:39:40;97372.28;;;3.53;67.21
18323;BME280;9287;49.456;11.064;2023-03-11T09:42:16;97372.94;;;3.32;69.70
18323;BME280;9287;49.456;11.064;2023-03-11T09:44:53;97382.50;;;3.21;73.93
18323;BME280;9287;49.456;11.064;2023-03-11T09:47:32;97382.81;;;3.11;71.56
18323;BME280;9287;49.456;11.064;2023-03-11T09:50:29;97381.50;;;3.34;71.21
18323;BME280;9287;49.456;11.064;2023-03-11T09:53:06;97373.50;;;3.64;70.35
18323;BME280;9287;49.456;11.064;2023-03-11T09:55:42;97382.03;;;3.83;68.69
18323;BME280;9287;49.456;11.064;2023-03-11T09:58:14;97394.16;;;3.77;65.79
18323;BME280;9287;49.456;11.064;2023-03-11T10:00:44;97373.81;;;3.71;63.10
18323;BME280;9287;49.456;11.064;2023-03-11T10:03:28;97399.94;;;3.32;67.05
18323;BME280;9287;49.456;11.064;2023-03-11T10:06:16;97424.38;;;2.93;78.80
18323;BME280;9287;49.456;11.064;2023-03-11T10:08:51;97437.59;;;2.46;93.60
18323;BME280;9287;49.456;11.064;2023-03-11T10:11:42;97445.22;;;2.04;100.00
18323;BME280;9287;49.456;11.064;2023-03-11T10:14:36;97437.66;;;1.84;100.00
18323;BME280;9287;49.456;11.064;2023-03-11T10:17:15;97439.69;;;1.56;100.00
18323;BME280;9287;49.456;11.064;2023-03-11T10:19:47;97431.97;;;1.55;100.00
18323;BME280;9287;49.456;11.064;2023-03-11T10:22:24;97426.63;;;1.63;100.00
18323;BME280;9287;49.456;11.064;2023-03-11T10:25:02;97425.47;;;1.87;100.00
18323;BME280;9287;49.456;11.064;2023-03-11T10:27:35;97433.41;;;2.23;100.00
18323;BME280;9287;49.456;11.064;2023-03-11T10:30:14;97427.81;;;2.67;100.00
18323;BME280;9287;49.456;11.064;2023-03-11T10:32:47;97429.28;;;3.34;100.00
18323;BME280;9287;49.456;11.064;2023-03-11T10:35:20;97437.66;;;4.60;97.16
18323;BME280;9287;49.456;11.064;2023-03-11T10:37:53;97425.22;;;5.18;88.48
18323;BME280;9287;49.456;11.064;2023-03-11T10:40:28;97423.91;;;5.90;76.85
18323;BME280;9287;49.456;11.064;2023-03-11T10:42:59;97425.06;;;5.35;74.01
18323;BME280;9287;49.456;11.064;2023-03-11T10:45:37;97425.66;;;4.49;76.21
18323;BME280;9287;49.456;11.064;2023-03-11T10:48:09;97409.28;;;4.07;74.16
18323;BME280;9287;49.456;11.064;2023-03-11T10:50:44;97414.59;;;3.87;70.48
18323;BME280;9287;49.456;11.064;2023-03-11T10:53:15;97405.59;;;3.74;73.20
18323;BME280;9287;49.456;11.064;2023-03-11T10:55:46;97411.78;;;3.74;73.83
18323;BME280;9287;49.456;11.064;2023-03-11T10:58:17;97427.81;;;3.71;72.72
18323;BME280;9287;49.456;11.064;2023-03-11T11:00:45;97423.97;;;3.89;74.04
18323;BME280;9287;49.456;11.064;2023-03-11T11:03:22;97423.84;;;4.24;73.89
18323;BME280;9287;49.456;11.064;2023-03-11T11:05:57;97421.31;;;4.57;68.58
18323;BME280;9287;49.456;11.064;2023-03-11T11:08:27;97421.84;;;4.71;65.30
18323;BME280;9287;49.456;11.064;2023-03-11T11:10:56;97416.28;;;6.16;61.94
18323;BME280;9287;49.456;11.064;2023-03-11T11:13:25;97416.16;;;7.38;56.54
18323;BME280;9287;49.456;11.064;2023-03-11T11:16:00;97416.50;;;7.09;53.48
18323;BME280;9287;49.456;11.064;2023-03-11T11:18:31;97421.72;;;6.41;52.16
18323;BME280;9287;49.456;11.064;2023-03-11T11:21:03;97434.47;;;6.04;53.29
18323;BME280;9287;49.456;11.064;2023-03-11T11:23:36;97431.00;;;5.82;53.48
18323;BME280;9287;49.456;11.064;2023-03-11T11:26:13;97424.78;;;5.28;55.38
18323;BME280;9287;49.456;11.064;2023-03-11T11:28:42;97423.97;;;4.86;57.13
18323;BME280;9287;49.456;11.064;2023-03-11T11:31:22;97430.13;;;4.45;56.51
18323;BME280;9287;49.456;11.064;2023-03-11T11:33:53;97431.41;;;4.39;56.12
18323;BME280;9287;49.456;11.064;2023-03-11T11:36:26;97432.44;;;4.26;57.66
18323;BME280;9287;49.456;11.064;2023-03-11T11:38:58;97431.13;;;4.32;58.29
18323;BME280;9287;49.456;11.064;2023-03-11T11:41:30;97429.72;;;4.55;58.28
18323;BME280;9287;49.456;11.064;2023-03-11T11:44:00;97441.50;;;4.59;57.36
18323;BME280;9287;49.456;11.064;2023-03-11T11:46:34;97435.06;;;4.43;57.82
18323;BME280;9287;49.456;11.064;2023-03-11T11:49:09;97429.56;;;4.60;58.41
18323;BME280;9287;49.456;11.064;2023-03-11T11:51:46;97424.06;;;4.48;57.92
18323;BME280;9287;49.456;11.064;2023-03-11T11:54:23;97428.06;;;4.71;59.01
18323;BME280;9287;49.456;11.064;2023-03-11T11:56:54;97417.66;;;4.82;60.05
18323;BME280;9287;49.456;11.064;2023-03-11T11:59:22;97422.16;;;4.99;59.44
18323;BME280;9287;49.456;11.064;2023-03-11T12:01:58;97425.84;;;5.15;59.88
18323;BME280;9287;49.456;11.064;2023-03-11T12:04:43;97429.59;;;5.43;57.27
18323;BME280;9287;49.456;11.064;2023-03-11T12:07:24;97417.41;;;6.03;54.50
18323;BME280;9287;49.456;11.064;2023-03-11T12:10:03;97423.31;;;6.17;51.66
18323;BME280;9287;49.456;11.064;2023-03-11T12:13:05;97417.41;;;6.03;52.39
18323;BME280;9287;49.456;11.064;2023-03-11T12:15:41;97422.59;;;5.96;54.74
18323;BME280;9287;49.456;11.064;2023-03-11T12:18:21;97420.13;;;5.70;55.87
18323;BME280;9287;49.456;11.064;2023-03-11T12:20:53;97435.63;;;5.28;56.84
18323;BME280;9287;49.456;11.064;2023-03-11T12:23:36;97423.81;;;5.33;56.74
18323;BME280;9287;49.456;11.064;2023-03-11T12:26:15;97431.53;;;5.22;57.78
18323;BME280;9287;49.456;11.064;2023-03-11T12:28:49;97423.69;;;5.29;58.58
18323;BME280;9287;49.456;11.064;2023-03-11T12:31:21;97406.03;;;5.02;59.96
18323;BME280;9287;49.456;11.064;2023-03-11T12:33:55;97426.47;;;4.70;60.69
18323;BME280;9287;49.456;11.064;2023-03-11T12:36:28;97435.34;;;4.50;61.76
18323;BME280;9287;49.456;11.064;2023-03-11T12:38:59;97440.00;;;4.41;62.74
18323;BME280;9287;49.456;11.064;2023-03-11T12:41:32;97436.06;;;4.30;64.68
18323;BME280;9287;49.456;11.064;2023-03-11T12:47:22;97436.34;;;3.90;65.16
18323;BME280;9287;49.456;11.064;2023-03-11T12:49:52;97433.03;;;3.84;64.51
18323;BME280;9287;49.456;11.064;2023-03-11T12:52:25;97431.44;;;3.92;64.56
18323;BME280;9287;49.456;11.064;2023-03-11T12:58:34;97430.59;;;4.00;64.05
18323;BME280;9287;49.456;11.064;2023-03-11T13:01:31;97429.69;;;3.96;61.96
18323;BME280;9287;49.456;11.064;2023-03-11T13:04:26;97435.69;;;4.02;63.19
18323;BME280;9287;49.456;11.064;2023-03-11T13:10:02;97433.44;;;4.12;62.30
18323;BME280;9287;49.456;11.064;2023-03-11T13:12:38;97439.47;;;4.09;61.90
18323;BME280;9287;49.456;11.064;2023-03-11T13:15:32;97442.34;;;4.04;61.78
18323;BME280;9287;49.456;11.064;2023-03-11T13:18:03;97440.16;;;3.89;62.34
18323;BME280;9287;49.456;11.064;2023-03-11T13:20:48;97446.72;;;3.71;63.52
18323;BME280;9287;49.456;11.064;2023-03-11T13:23:29;97450.69;;;3.65;64.01
18323;BME280;9287;49.456;11.064;2023-03-11T13:26:12;97447.22;;;3.56;64.48
18323;BME280;9287;49.456;11.064;2023-03-11T13:28:53;97455.47;;;3.33;64.82
18323;BME280;9287;49.456;11.064;2023-03-11T13:31:40;97461.50;;;3.30;63.15
18323;BME280;9287;49.456;11.064;2023-03-11T13:34:14;97454.06;;;3.44;65.31